Time;durP1;ratioP1;P1;durP2;ratioP2;P2;SDS_P1;SDS_P2;PMS_P1;PMS_P2;Temp;Humidity;BMP_temperature;BMP_pressure;BME280_temperature;BME280_humidity;BME280_pressure;Samples;Min_cycle;Max_cycle;Signal;HPM_P1;HPM_P2
2021/04/06 00:00:45;;;;;;;8.93;5.10;;;;;;;8.53;45.41;98748.69;5096141;28;20539;-77
2021/04/06 00:03:15;;;;;;;10.88;5.18;;;;;;;8.13;45.53;98691.53;5114319;28;20031;-77
2021/04/06 00:05:42;;;;;;;11.32;5.35;;;;;;;8.42;45.63;98746.00;5096231;28;20106;-76
2021/04/06 00:08:09;;;;;;;9.55;4.53;;;;;;;8.47;44.81;98738.50;5079590;28;20045;-74
2021/04/06 00:10:44;;;;;;;9.13;5.15;;;;;;;8.60;44.92;98754.41;5095708;28;20046;-75
2021/04/06 00:13:11;;;;;;;8.52;4.78;;;;;;;8.50;44.88;98727.66;5096441;28;20415;-75
2021/04/06 00:15:38;;;;;;;9.23;5.22;;;;;;;8.65;44.89;98756.69;5095745;28;20035;-74
2021/04/06 00:18:06;;;;;;;9.90;5.15;;;;;;;8.52;45.00;98736.38;5114113;28;20032;-74
2021/04/06 00:20:34;;;;;;;10.80;5.07;;;;;;;8.12;45.63;98680.06;5113299;28;20023;-75
2021/04/06 00:23:03;;;;;;;11.02;5.13;;;;;;;8.37;45.95;98745.47;5114108;28;20035;-74
2021/04/06 00:25:34;;;;;;;16.27;6.03;;;;;;;8.39;45.59;98748.88;5078844;28;20130;-73
2021/04/06 00:28:04;;;;;;;13.52;5.97;;;;;;;7.92;45.73;98670.91;5113793;28;20032;-73
2021/04/06 00:30:32;;;;;;;11.52;5.35;;;;;;;8.28;45.83;98748.78;5113987;28;20484;-73
2021/04/06 00:33:15;;;;;;;11.23;5.30;;;;;;;8.29;45.91;98758.44;5095679;28;20032;-74
2021/04/06 00:35:41;;;;;;;12.15;5.53;;;;;;;8.11;46.16;98728.81;5114063;28;20030;-74
2021/04/06 00:38:13;;;;;;;11.55;5.63;;;;;;;8.14;46.42;98730.38;5113837;28;20051;-73
2021/04/06 00:40:45;;;;;;;12.05;5.68;;;;;;;7.89;46.49;98695.03;5095022;28;20028;-74
2021/04/06 00:43:12;;;;;;;9.77;5.00;;;;;;;8.24;46.30;98748.19;5113786;28;20043;-74
2021/04/06 00:45:40;;;;;;;11.38;5.63;;;;;;;8.20;46.74;98746.72;5095434;28;20031;-74
2021/04/06 00:48:24;;;;;;;13.13;5.40;;;;;;;8.25;46.83;98749.03;5113452;28;20030;-73
2021/04/06 00:51:11;;;;;;;10.70;5.00;;;;;;;8.26;46.56;98750.72;5113951;28;20038;-73
2021/04/06 00:53:56;;;;;;;10.25;5.07;;;;;;;8.29;47.50;98751.31;5113376;28;20040;-73
2021/04/06 00:56:27;;;;;;;10.10;5.63;;;;;;;8.10;46.74;98711.16;5095001;28;20386;-73
2021/04/06 00:58:54;;;;;;;10.13;5.45;;;;;;;8.36;46.88;98746.44;5113657;28;20072;-74
2021/04/06 01:01:35;;;;;;;9.00;5.32;;;;;;;8.12;47.11;98727.84;5094791;28;20129;-76
2021/04/06 01:04:07;;;;;;;9.57;5.28;;;;;;;8.11;46.99;98725.31;5113551;28;20024;-76
2021/04/06 01:06:51;;;;;;;10.13;5.47;;;;;;;7.86;46.74;98684.63;5113367;28;20023;-76
2021/04/06 01:09:17;;;;;;;8.57;5.03;;;;;;;8.10;47.17;98718.28;5113151;28;20031;-75
2021/04/06 01:11:44;;;;;;;7.80;4.97;;;;;;;8.27;47.23;98747.09;5078218;28;20047;-77
2021/04/06 01:14:16;;;;;;;10.70;5.38;;;;;;;8.32;47.11;98748.47;5113671;28;20047;-75
2021/04/06 01:16:42;;;;;;;9.32;4.97;;;;;;;8.41;46.68;98760.25;5113361;28;20114;-75
2021/04/06 01:19:09;;;;;;;9.13;5.38;;;;;;;8.49;46.87;98755.22;5094815;28;20462;-75
2021/04/06 01:21:35;;;;;;;11.00;5.95;;;;;;;8.46;46.78;98767.88;5094775;28;20039;-75
2021/04/06 01:24:06;;;;;;;9.98;5.00;;;;;;;8.55;47.65;98780.47;5078408;28;20085;-74
2021/04/06 01:26:33;;;;;;;18.17;3.47;;;;;;;7.52;59.43;98813.59;5113100;28;20419;-76
2021/04/06 01:28:58;;;;;;;7.90;2.30;;;;;;;6.74;62.01;98773.94;5095277;28;20486;-74
2021/04/06 01:31:25;;;;;;;2.80;1.80;;;;;;;6.44;63.88;98813.06;5095826;28;20031;-74
2021/04/06 01:33:51;;;;;;;20.88;3.08;;;;;;;6.08;65.37;98811.03;5099724;28;20028;-76
2021/04/06 01:36:17;;;;;;;4.88;2.28;;;;;;;5.88;66.56;98847.53;5117370;28;20084;-73
2021/04/06 01:38:42;;;;;;;5.10;2.15;;;;;;;5.66;67.11;98796.91;5116929;28;20489;-78
2021/04/06 01:41:08;;;;;;;5.35;2.63;;;;;;;5.54;67.45;98801.19;5082478;28;20036;-77
2021/04/06 01:43:38;;;;;;;7.78;2.42;;;;;;;5.58;67.84;98829.13;5116855;28;20047;-72
2021/04/06 01:46:15;;;;;;;5.35;2.45;;;;;;;5.47;68.58;98836.88;5099299;28;20607;-72
2021/04/06 01:48:40;;;;;;;7.15;2.60;;;;;;;4.82;69.21;98778.31;5098710;28;20114;-73
2021/04/06 01:51:06;;;;;;;5.15;2.28;;;;;;;5.25;69.78;98890.22;5098853;28;20122;-75
2021/04/06 01:53:34;;;;;;;5.07;2.50;;;;;;;5.21;70.19;98886.09;5116979;28;20470;-74
2021/04/06 01:59:02;;;;;;;3.25;1.65;;;;;;;4.64;72.12;98869.22;5093089;28;20074;-79
2021/04/06 02:01:27;;;;;;;1.80;1.40;;;;;;;4.36;73.43;98886.63;5098508;28;20035;-79
2021/04/06 02:04:01;;;;;;;3.25;1.77;;;;;;;4.35;73.85;98918.41;5098596;28;20530;-72
2021/04/06 02:06:34;;;;;;;2.22;1.73;;;;;;;3.92;75.05;98900.50;5116555;28;20138;-70
2021/04/06 02:09:00;;;;;;;2.28;1.27;;;;;;;3.86;75.66;98940.41;5098460;28;20036;-73
2021/04/06 02:11:25;;;;;;;2.45;1.33;;;;;;;3.73;77.87;98940.19;5116400;28;20038;-72
2021/04/06 02:13:51;;;;;;;2.17;1.27;;;;;;;3.73;78.11;98942.84;5116661;28;20070;-73
2021/04/06 02:16:17;;;;;;;1.92;1.40;;;;;;;3.34;78.51;98911.50;5116561;28;20070;-72
2021/04/06 02:18:50;;;;;;;1.13;0.90;;;;;;;3.64;78.67;98953.00;5116154;28;20051;-73
2021/04/06 02:21:15;;;;;;;1.38;1.10;;;;;;;3.29;80.39;98934.63;5116640;28;20023;-72
2021/04/06 02:23:43;;;;;;;1.58;1.05;;;;;;;3.38;80.86;98947.34;5116158;28;20034;-72
2021/04/06 02:26:09;;;;;;;1.05;0.90;;;;;;;3.33;82.52;98941.44;5098275;28;20035;-72
2021/04/06 02:28:34;;;;;;;1.45;0.93;;;;;;;3.49;82.35;98970.50;5116220;28;20485;-74
2021/04/06 02:31:02;;;;;;;3.08;1.30;;;;;;;3.16;82.63;98976.53;5081404;28;20109;-71
2021/04/06 02:33:30;;;;;;;0.88;0.88;;;;;;;2.80;82.87;98966.06;5115696;28;20035;-72
2021/04/06 02:36:01;;;;;;;2.60;1.20;;;;;;;2.90;82.81;99018.28;5097984;28;20036;-72
2021/04/06 02:38:32;;;;;;;2.13;1.20;;;;;;;2.66;84.13;98962.38;5115930;28;20042;-73
2021/04/06 02:41:06;;;;;;;3.15;1.50;;;;;;;2.71;82.98;98990.22;5115871;28;20513;-73
2021/04/06 02:43:50;;;;;;;2.00;1.25;;;;;;;2.64;83.46;99007.22;5115103;28;20035;-72
2021/04/06 02:46:19;;;;;;;1.92;1.48;;;;;;;2.65;84.56;99001.03;5097904;28;20035;-72
2021/04/06 02:48:45;;;;;;;1.25;1.00;;;;;;;2.49;82.46;99008.78;5115668;28;20078;-70
2021/04/06 02:51:12;;;;;;;2.78;1.40;;;;;;;2.49;82.41;99005.31;5116190;28;20063;-71
2021/04/06 02:53:38;;;;;;;2.17;1.65;;;;;;;2.60;83.56;99005.63;5115579;28;20032;-70
2021/04/06 02:56:06;;;;;;;1.13;1.00;;;;;;;2.54;82.63;99013.84;5097526;28;20363;-71
2021/04/06 02:58:36;;;;;;;2.17;1.42;;;;;;;2.51;82.24;99017.50;5115498;28;20111;-71
2021/04/06 03:01:12;;;;;;;2.97;1.83;;;;;;;2.72;82.61;99010.34;5097713;28;20035;-75
2021/04/06 03:03:37;;;;;;;2.20;1.50;;;;;;;2.81;81.76;98999.38;5097305;28;20042;-74
2021/04/06 03:06:14;;;;;;;2.17;1.55;;;;;;;3.02;80.23;98993.97;5097622;28;20401;-75
2021/04/06 03:08:41;;;;;;;2.92;1.80;;;;;;;2.85;78.40;98979.84;5115290;28;20043;-71
2021/04/06 03:11:11;;;;;;;2.22;1.55;;;;;;;3.06;77.31;99008.69;5115509;28;20027;-72
2021/04/06 03:13:42;;;;;;;2.90;1.73;;;;;;;3.08;76.51;99007.69;5115273;28;20058;-72
2021/04/06 03:16:08;;;;;;;2.30;1.70;;;;;;;3.08;75.32;98994.50;5115098;28;20038;-73
2021/04/06 03:18:37;;;;;;;1.90;1.27;;;;;;;3.21;75.45;99013.22;5096553;28;20051;-73
2021/04/06 03:21:06;;;;;;;2.67;1.63;;;;;;;3.38;75.50;99004.47;5114987;28;20119;-73
2021/04/06 03:23:33;;;;;;;3.17;1.70;;;;;;;3.41;74.05;98986.69;5096947;28;20031;-73
2021/04/06 03:26:00;;;;;;;2.90;1.30;;;;;;;3.52;72.42;98995.84;5097167;28;20024;-74
2021/04/06 03:28:37;;;;;;;2.33;1.40;;;;;;;3.57;70.56;98999.09;5097072;28;20035;-73
2021/04/06 03:31:15;;;;;;;2.13;1.10;;;;;;;3.62;71.78;99002.34;5115547;28;20074;-73
2021/04/06 03:33:44;;;;;;;2.20;1.45;;;;;;;3.33;71.44;98945.84;5115039;28;20066;-73
2021/04/06 03:36:19;;;;;;;3.03;1.40;;;;;;;3.67;68.88;98989.78;5096914;28;20031;-73
2021/04/06 03:38:47;;;;;;;2.13;1.27;;;;;;;3.88;67.78;99017.69;5114697;28;20050;-73
2021/04/06 03:41:12;;;;;;;1.42;1.15;;;;;;;3.72;67.97;98987.75;5114765;28;20027;-72
2021/04/06 03:43:41;;;;;;;1.42;1.10;;;;;;;3.97;67.41;99025.13;5114709;28;20100;-71
2021/04/06 03:46:08;;;;;;;2.10;1.20;;;;;;;3.95;65.48;99026.97;5096683;28;20083;-72
2021/04/06 03:48:35;;;;;;;1.92;1.20;;;;;;;3.92;64.81;99031.56;5114519;28;20032;-71
2021/04/06 03:51:03;;;;;;;2.20;1.10;;;;;;;3.83;64.61;99001.22;5114716;28;20035;-72
2021/04/06 03:53:41;;;;;;;1.75;1.08;;;;;;;3.99;64.90;99023.25;5113720;28;20042;-71
2021/04/06 03:56:13;;;;;;;1.27;0.88;;;;;;;3.87;64.33;99018.63;5115058;28;20127;-71
2021/04/06 03:58:42;;;;;;;2.78;1.00;;;;;;;3.83;64.34;99035.53;5096507;28;20036;-71
2021/04/06 04:01:08;;;;;;;1.63;1.17;;;;;;;3.78;63.64;99028.78;5114576;28;20027;-76
2021/04/06 04:03:35;;;;;;;2.00;1.20;;;;;;;3.84;63.93;99039.00;5114207;28;20082;-76
2021/04/06 04:06:00;;;;;;;2.08;1.30;;;;;;;3.77;65.02;99024.47;5096296;28;20035;-76
2021/04/06 04:08:26;;;;;;;2.42;1.20;;;;;;;3.95;64.10;99063.91;5079483;28;20037;-75
2021/04/06 04:10:52;;;;;;;1.83;1.02;;;;;;;3.87;63.78;99059.97;5113685;28;20046;-74
2021/04/06 04:13:17;;;;;;;1.65;1.10;;;;;;;3.88;62.81;99074.88;5114066;28;20069;-74
2021/04/06 04:15:43;;;;;;;1.55;1.05;;;;;;;3.82;64.09;99072.53;5113871;28;20067;-74
2021/04/06 04:18:08;;;;;;;2.15;1.35;;;;;;;3.95;64.49;99079.72;5114008;28;20462;-75
2021/04/06 04:20:34;;;;;;;2.17;1.27;;;;;;;3.72;62.21;99049.25;5113927;28;20030;-75
2021/04/06 04:23:00;;;;;;;2.47;1.40;;;;;;;3.92;62.32;99069.34;5114167;28;20359;-75
2021/04/06 04:25:25;;;;;;;3.22;1.40;;;;;;;3.70;63.18;99031.81;5096083;28;20027;-75
2021/04/06 04:27:51;;;;;;;3.97;1.80;;;;;;;3.66;66.87;99067.19;5095274;28;20043;-72
2021/04/06 04:30:35;;;;;;;2.65;1.65;;;;;;;3.33;66.74;99075.00;5095950;28;20478;-73
2021/04/06 04:33:02;;;;;;;3.30;1.80;;;;;;;3.28;68.45;99083.16;5114023;28;20061;-74
2021/04/06 04:35:27;;;;;;;4.80;1.70;;;;;;;3.24;65.36;99071.03;5113929;28;20034;-74
2021/04/06 04:37:53;;;;;;;3.72;1.85;;;;;;;3.31;64.37;99088.25;5095242;28;20469;-74
2021/04/06 04:40:18;;;;;;;3.45;1.80;;;;;;;3.24;64.46;99094.75;5113744;28;20032;-73
2021/04/06 04:42:44;;;;;;;4.03;1.90;;;;;;;3.09;64.18;99066.53;5113148;28;20478;-74
2021/04/06 04:45:10;;;;;;;3.83;2.10;;;;;;;3.33;64.63;99102.22;5113405;28;20035;-72
2021/04/06 04:47:36;;;;;;;4.97;2.20;;;;;;;3.40;63.63;99108.91;5078454;28;20489;-73
2021/04/06 04:50:02;;;;;;;3.70;2.30;;;;;;;3.08;63.24;99120.13;5113892;28;20035;-73
2021/04/06 04:52:28;;;;;;;4.85;2.15;;;;;;;2.90;62.89;99081.50;5113435;28;20081;-71
2021/04/06 04:54:54;;;;;;;4.25;2.28;;;;;;;3.13;62.46;99115.50;5095414;28;20122;-74
2021/04/06 04:57:19;;;;;;;2.08;1.63;;;;;;;2.95;62.29;99061.91;5095181;28;20038;-77
2021/04/06 04:59:45;;;;;;;3.40;2.20;;;;;;;3.02;60.97;99115.16;5094524;28;20051;-78
2021/04/06 05:02:10;;;;;;;4.78;2.35;;;;;;;2.93;61.47;99132.25;5095584;28;20038;-76
2021/04/06 05:04:36;;;;;;;3.95;2.20;;;;;;;3.04;59.62;99160.72;5112908;28;20038;-74
2021/04/06 05:07:01;;;;;;;4.13;2.00;;;;;;;3.00;59.58;99151.28;5113239;28;20035;-74
2021/04/06 05:09:27;;;;;;;4.15;1.77;;;;;;;2.99;58.68;99139.88;5095192;28;20035;-74
2021/04/06 05:11:54;;;;;;;5.38;2.03;;;;;;;2.87;58.35;99114.94;5112918;28;20038;-74
2021/04/06 05:14:19;;;;;;;6.88;2.80;;;;;;;2.77;58.93;99129.47;5113246;28;20483;-74
2021/04/06 05:16:45;;;;;;;4.47;2.10;;;;;;;2.90;59.08;99152.63;5113296;28;20080;-76
2021/04/06 05:19:10;;;;;;;3.45;1.80;;;;;;;2.83;59.18;99155.53;5113052;28;20051;-77
2021/04/06 05:21:36;;;;;;;4.90;2.03;;;;;;;2.95;58.69;99163.78;5113041;28;20385;-77
2021/04/06 05:24:01;;;;;;;4.35;1.83;;;;;;;3.04;58.59;99155.44;5095383;28;20471;-78
2021/04/06 05:26:27;;;;;;;3.25;1.92;;;;;;;2.77;58.42;99125.97;5113379;28;20064;-77
2021/04/06 05:28:52;;;;;;;7.38;2.33;;;;;;;3.00;57.91;99167.06;5094485;28;20040;-73
2021/04/06 05:31:18;;;;;;;5.35;2.20;;;;;;;2.99;57.38;99171.50;5095066;28;20035;-73
2021/04/06 05:33:43;;;;;;;3.95;1.90;;;;;;;2.75;57.37;99151.53;5113161;28;20036;-73
2021/04/06 05:36:09;;;;;;;8.77;2.22;;;;;;;2.53;56.56;99114.81;5113244;28;20039;-74
2021/04/06 05:38:35;;;;;;;4.32;2.03;;;;;;;2.37;55.85;99088.31;5113594;28;20057;-74
2021/04/06 05:41:00;;;;;;;6.40;2.35;;;;;;;2.88;56.12;99189.53;5113237;28;20038;-76
2021/04/06 05:43:27;;;;;;;5.75;2.42;;;;;;;2.96;56.65;99181.28;5112742;28;20042;-75
2021/04/06 05:45:54;;;;;;;4.57;2.20;;;;;;;2.95;56.96;99174.31;5112407;28;20115;-77
2021/04/06 05:48:22;;;;;;;3.08;1.88;;;;;;;2.81;56.25;99162.66;5094382;28;20028;-75
2021/04/06 05:50:50;;;;;;;6.32;2.13;;;;;;;2.95;56.27;99200.66;5112941;28;20035;-74
2021/04/06 05:53:15;;;;;;;6.07;2.40;;;;;;;2.96;55.35;99192.69;5113233;28;20043;-76
2021/04/06 05:55:41;;;;;;;5.80;2.20;;;;;;;2.80;55.63;99160.94;5112932;28;20462;-74
2021/04/06 05:58:06;;;;;;;4.28;2.20;;;;;;;3.02;55.28;99191.56;5077946;28;20035;-75
2021/04/06 06:00:32;;;;;;;6.78;2.67;;;;;;;2.99;56.07;99196.94;5094840;28;20489;-77
2021/04/06 06:02:59;;;;;;;6.90;2.20;;;;;;;3.12;54.79;99184.94;5115400;28;20027;-75
2021/04/06 06:05:24;;;;;;;3.58;2.10;;;;;;;3.15;53.94;99190.06;5112756;28;20034;-76
2021/04/06 06:07:50;;;;;;;6.22;2.00;;;;;;;3.12;54.15;99184.94;5094151;28;20028;-72
2021/04/06 06:10:28;;;;;;;3.97;2.05;;;;;;;3.26;54.12;99197.47;5090913;28;20122;-72
2021/04/06 06:12:55;;;;;;;4.97;2.00;;;;;;;3.22;53.86;99194.13;5091653;28;20055;-72
2021/04/06 06:15:21;;;;;;;4.72;1.70;;;;;;;3.27;53.97;99215.81;5090276;28;20398;-73
2021/04/06 06:18:05;;;;;;;6.03;2.38;;;;;;;3.25;53.00;99233.50;5103515;28;20031;-74
2021/04/06 06:20:32;;;;;;;4.28;2.05;;;;;;;3.27;52.59;99228.16;5114774;28;20566;-73
2021/04/06 06:23:20;;;;;;;6.55;1.95;;;;;;;3.34;53.06;99229.59;5114594;28;20024;-73
2021/04/06 06:26:07;;;;;;;4.65;2.05;;;;;;;3.38;52.88;99233.81;5094238;28;20106;-72
2021/04/06 06:28:36;;;;;;;4.88;2.15;;;;;;;3.40;52.69;99218.75;5097004;28;20039;-71
2021/04/06 06:31:03;;;;;;;6.70;2.67;;;;;;;3.28;52.49;99250.94;5115326;28;20028;-70
2021/04/06 06:33:32;;;;;;;3.90;2.20;;;;;;;3.39;52.66;99244.28;5115180;28;20031;-70
2021/04/06 06:36:14;;;;;;;3.92;2.05;;;;;;;3.34;52.63;99235.72;5114857;28;20032;-72
2021/04/06 06:38:42;;;;;;;4.05;1.98;;;;;;;3.14;52.58;99227.88;5111354;28;20036;-73
2021/04/06 06:41:12;;;;;;;5.63;2.17;;;;;;;3.20;52.32;99240.78;5115193;28;20024;-78
2021/04/06 06:43:40;;;;;;;7.30;2.60;;;;;;;2.72;52.26;99189.41;5115115;28;20390;-75
2021/04/06 06:46:16;;;;;;;3.05;1.80;;;;;;;3.10;53.02;99242.13;5096565;28;20162;-73
2021/04/06 06:48:52;;;;;;;4.45;2.20;;;;;;;3.14;52.45;99235.78;5115444;28;20039;-72
2021/04/06 06:51:17;;;;;;;5.10;2.40;;;;;;;3.40;52.70;99261.78;5115174;28;20110;-73
2021/04/06 06:53:43;;;;;;;4.43;2.13;;;;;;;3.45;52.14;99254.50;5079409;28;20119;-79
2021/04/06 06:56:11;;;;;;;3.72;2.20;;;;;;;3.53;51.96;99267.34;5114243;28;20565;-71
2021/04/06 06:58:42;;;;;;;5.32;2.75;;;;;;;3.28;51.73;99257.09;5115084;28;20050;-72
2021/04/06 07:01:32;;;;;;;4.97;2.28;;;;;;;3.47;51.73;99286.06;5114519;28;20040;-74
2021/04/06 07:04:05;;;;;;;6.30;2.30;;;;;;;3.36;52.21;99299.75;5114332;28;20378;-71
2021/04/06 07:06:31;;;;;;;7.53;2.72;;;;;;;3.44;51.78;99297.63;5114661;28;20448;-75
2021/04/06 07:08:57;;;;;;;6.90;2.03;;;;;;;3.47;51.80;99295.75;5114448;28;20428;-75
2021/04/06 07:11:23;;;;;;;4.45;2.38;;;;;;;3.44;51.85;99287.06;5079653;28;20028;-73
2021/04/06 07:13:53;;;;;;;5.50;2.15;;;;;;;3.42;51.57;99291.56;5095531;28;20047;-73
2021/04/06 07:16:20;;;;;;;2.95;2.05;;;;;;;3.33;52.25;99305.16;5114715;28;20482;-74
2021/04/06 07:18:50;;;;;;;5.75;2.53;;;;;;;3.39;51.58;99260.09;5114271;28;20506;-75
2021/04/06 07:21:20;;;;;;;6.20;2.45;;;;;;;3.50;51.57;99288.59;5114361;28;20392;-73
2021/04/06 07:23:49;;;;;;;4.60;2.10;;;;;;;3.41;51.34;99274.03;5114443;28;20039;-74
2021/04/06 07:26:17;;;;;;;5.65;2.25;;;;;;;3.26;51.38;99261.56;5096037;28;20097;-74
2021/04/06 07:28:43;;;;;;;4.93;2.22;;;;;;;3.51;51.80;99294.72;5096247;28;20089;-76
2021/04/06 07:31:10;;;;;;;7.45;2.90;;;;;;;3.71;51.28;99294.63;5113794;28;20120;-71
2021/04/06 07:33:36;;;;;;;5.65;2.40;;;;;;;3.78;51.23;99311.88;5114064;28;20044;-70
2021/04/06 07:36:11;;;;;;;3.67;1.80;;;;;;;3.57;50.88;99273.31;5113748;28;20217;-72
2021/04/06 07:38:48;;;;;;;5.50;2.55;;;;;;;3.65;50.96;99264.09;5096145;28;20474;-73
2021/04/06 07:41:15;;;;;;;6.50;2.42;;;;;;;3.77;50.62;99297.00;5112705;28;20131;-74
2021/04/06 07:43:42;;;;;;;4.97;2.67;;;;;;;3.81;50.72;99272.16;5095541;28;20066;-76
2021/04/06 07:46:08;;;;;;;5.88;2.67;;;;;;;3.96;50.30;99279.34;5095388;28;20077;-75
2021/04/06 07:48:53;;;;;;;5.38;2.60;;;;;;;4.10;49.96;99280.44;5095625;28;20411;-70
2021/04/06 07:51:26;;;;;;;6.28;3.15;;;;;;;4.25;49.81;99295.53;5114074;28;20038;-71
2021/04/06 07:53:58;;;;;;;5.35;2.70;;;;;;;4.02;49.84;99305.41;5113394;28;20035;-70
2021/04/06 07:56:45;;;;;;;7.47;3.00;;;;;;;4.18;50.13;99296.75;5116834;28;20131;-73
2021/04/06 07:59:33;;;;;;;5.55;2.72;;;;;;;4.31;49.26;99314.53;5078364;28;20303;-73
2021/04/06 08:01:58;;;;;;;6.15;2.60;;;;;;;4.77;48.84;99306.09;5113051;28;20055;-72
2021/04/06 08:04:47;;;;;;;6.22;2.78;;;;;;;4.67;48.07;99331.28;5113568;28;20024;-71
2021/04/06 08:07:19;;;;;;;5.25;2.47;;;;;;;4.68;48.59;99323.28;5094824;28;20032;-71
2021/04/06 08:09:49;;;;;;;6.40;2.88;;;;;;;4.37;48.72;99292.28;5113599;28;20031;-71
2021/04/06 08:12:25;;;;;;;7.82;2.90;;;;;;;4.72;48.66;99316.03;5095050;28;20032;-72
2021/04/06 08:15:03;;;;;;;6.20;2.80;;;;;;;4.49;48.80;99304.84;5113602;28;20063;-78
2021/04/06 08:17:29;;;;;;;6.63;2.85;;;;;;;4.59;48.77;99339.59;5113379;28;20036;-71
2021/04/06 08:20:08;;;;;;;4.72;2.35;;;;;;;4.39;48.67;99316.81;5113149;28;20099;-75
2021/04/06 08:22:57;;;;;;;4.82;2.67;;;;;;;4.62;48.22;99331.50;5113361;28;20042;-74
2021/04/06 08:25:22;;;;;;;6.32;2.78;;;;;;;4.82;48.19;99346.34;5112906;28;20024;-71
2021/04/06 08:28:02;;;;;;;5.05;2.45;;;;;;;4.91;47.81;99319.44;5094837;28;20032;-73
2021/04/06 08:30:38;;;;;;;6.00;3.13;;;;;;;4.93;47.76;99346.66;5095081;28;20382;-74
2021/04/06 08:33:07;;;;;;;5.82;2.70;;;;;;;4.92;47.08;99344.94;5112966;28;20059;-77
2021/04/06 08:35:53;;;;;;;6.82;2.60;;;;;;;4.96;46.46;99341.22;5112754;28;20063;-75
2021/04/06 08:41:03;;;;;;;5.43;2.53;;;;;;;4.89;44.42;99339.81;5112576;28;20390;-74
2021/04/06 08:43:51;;;;;;;4.93;2.40;;;;;;;5.12;44.60;99339.50;5113012;28;20406;-80
2021/04/06 08:46:46;;;;;;;5.00;2.40;;;;;;;5.22;43.31;99333.72;5112473;28;20031;-74
2021/04/06 08:49:17;;;;;;;4.72;2.35;;;;;;;5.09;42.39;99338.78;5112578;28;20027;-73
2021/04/06 08:51:55;;;;;;;6.88;2.50;;;;;;;5.04;41.52;99346.97;5094489;28;20050;-71
2021/04/06 08:54:24;;;;;;;4.65;2.35;;;;;;;5.31;41.70;99327.94;5112309;28;20034;-75
2021/04/06 08:56:59;;;;;;;5.07;2.30;;;;;;;5.45;41.79;99365.94;5112691;28;20023;-71
2021/04/06 08:59:32;;;;;;;5.35;2.70;;;;;;;5.29;41.52;99372.09;5112639;28;20034;-72
2021/04/06 09:02:02;;;;;;;5.65;2.42;;;;;;;5.09;41.60;99334.34;5112214;28;20517;-76
2021/04/06 09:04:32;;;;;;;3.25;1.73;;;;;;;5.29;39.80;99332.44;5111890;28;20028;-78
2021/04/06 09:06:58;;;;;;;3.50;1.92;;;;;;;5.60;39.64;99361.63;5098457;28;20035;-77
2021/04/06 09:09:25;;;;;;;8.27;2.22;;;;;;;5.74;39.51;99372.31;5112808;28;20031;-76
2021/04/06 09:11:53;;;;;;;5.25;2.00;;;;;;;5.73;37.78;99362.66;5112677;28;20031;-78
2021/04/06 09:14:19;;;;;;;5.50;2.05;;;;;;;5.63;38.58;99297.94;5112274;28;20373;-77
2021/04/06 09:16:45;;;;;;;5.85;2.30;;;;;;;5.94;39.03;99355.34;5112713;28;20109;-77
2021/04/06 09:19:14;;;;;;;3.95;2.25;;;;;;;6.27;38.14;99355.28;5111000;28;20150;-77
2021/04/06 09:21:45;;;;;;;5.43;2.58;;;;;;;5.59;37.72;99301.69;5111356;28;20031;-74
2021/04/06 09:24:12;;;;;;;4.60;2.28;;;;;;;6.08;38.18;99344.03;5112193;28;20382;-76
2021/04/06 09:26:39;;;;;;;5.68;2.40;;;;;;;6.06;37.50;99311.47;5112356;28;20044;-76
2021/04/06 09:29:15;;;;;;;5.32;2.60;;;;;;;6.23;37.52;99324.59;5112216;28;20020;-73
2021/04/06 09:31:51;;;;;;;6.32;2.55;;;;;;;5.77;36.93;99289.25;5112824;28;20107;-73
2021/04/06 09:34:22;;;;;;;5.40;2.30;;;;;;;6.18;37.98;99349.66;5112056;28;20134;-75
2021/04/06 09:36:58;;;;;;;4.03;2.25;;;;;;;5.97;37.33;99325.22;5110891;28;20063;-74
2021/04/06 09:39:25;;;;;;;6.47;2.67;;;;;;;6.26;37.07;99355.34;5112440;28;20024;-75
2021/04/06 09:41:52;;;;;;;5.82;2.47;;;;;;;6.55;36.45;99380.16;5112450;28;20057;-75
2021/04/06 09:44:22;;;;;;;6.43;2.35;;;;;;;6.55;36.03;99383.69;5111256;28;20043;-75
2021/04/06 09:46:56;;;;;;;6.43;2.45;;;;;;;6.26;35.10;99345.59;5112564;28;20028;-76
2021/04/06 09:49:22;;;;;;;4.63;2.20;;;;;;;6.30;35.43;99394.81;5112309;28;20032;-75
2021/04/06 09:51:53;;;;;;;4.53;2.40;;;;;;;6.31;35.95;99372.69;5094585;28;20108;-75
2021/04/06 09:54:32;;;;;;;7.13;2.70;;;;;;;6.63;35.98;99395.63;5115629;28;20024;-75
2021/04/06 09:57:01;;;;;;;5.43;2.25;;;;;;;6.27;35.92;99312.91;5115909;28;20043;-76
2021/04/06 09:59:27;;;;;;;5.03;2.45;;;;;;;6.32;35.42;99387.63;5114858;28;20081;-76
2021/04/06 10:01:55;;;;;;;6.93;2.50;;;;;;;6.35;35.17;99401.66;5120044;28;20493;-76
2021/04/06 10:04:32;;;;;;;5.07;2.03;;;;;;;6.59;34.93;99410.88;5114520;28;20088;-77
2021/04/06 10:07:10;;;;;;;4.88;2.13;;;;;;;6.45;34.78;99402.84;5116080;28;20031;-77
2021/04/06 10:09:42;;;;;;;4.25;2.20;;;;;;;6.40;34.94;99415.50;5114659;28;20027;-73
2021/04/06 10:12:10;;;;;;;5.60;2.20;;;;;;;6.53;34.47;99406.75;5114558;28;20040;-73
2021/04/06 10:14:36;;;;;;;3.55;2.15;;;;;;;6.68;33.78;99394.44;5115657;28;20040;-73
2021/04/06 10:17:10;;;;;;;4.05;1.90;;;;;;;6.54;34.34;99397.00;5097356;28;20445;-74
2021/04/06 10:19:39;;;;;;;5.57;2.10;;;;;;;6.89;34.31;99387.88;5114445;28;20048;-73
2021/04/06 10:22:13;;;;;;;4.72;1.88;;;;;;;6.76;33.46;99364.84;5096979;28;20040;-74
2021/04/06 10:24:52;;;;;;;6.20;2.33;;;;;;;6.80;34.25;99384.91;5114937;28;20039;-74
2021/04/06 10:27:21;;;;;;;3.75;2.20;;;;;;;6.78;33.80;99385.00;5115583;28;20027;-73
2021/04/06 10:29:58;;;;;;;3.42;2.00;;;;;;;6.82;33.65;99328.22;5115651;28;20359;-78
2021/04/06 10:32:28;;;;;;;5.57;2.00;;;;;;;6.80;34.48;99379.63;5115565;28;20097;-78
2021/04/06 10:35:01;;;;;;;3.58;2.10;;;;;;;6.92;34.54;99376.22;5115226;28;20031;-75
2021/04/06 10:37:42;;;;;;;3.93;2.20;;;;;;;6.41;34.16;99385.41;5115078;28;20031;-73
2021/04/06 10:40:33;;;;;;;3.00;1.90;;;;;;;6.49;33.91;99378.75;5118797;28;20026;-72
2021/04/06 10:43:20;;;;;;;3.78;2.10;;;;;;;6.44;33.74;99379.94;5067318;28;20379;-76
2021/04/06 10:45:49;;;;;;;3.60;2.40;;;;;;;6.12;34.64;99369.38;5115083;28;20532;-76
2021/04/06 10:48:22;;;;;;;5.50;2.58;;;;;;;6.24;34.74;99360.72;5115027;28;20410;-71
2021/04/06 10:50:53;;;;;;;;;;;;;;;6.69;34.96;99359.03;5115449;28;20028;-79
2021/04/06 10:53:28;;;;;;;3.85;1.60;;;;;;;5.97;35.12;99344.59;5114281;28;19958;-80
2021/04/06 10:56:05;;;;;;;4.35;2.17;;;;;;;6.12;35.12;99289.94;5115056;28;20024;-79
2021/04/06 10:58:35;;;;;;;4.75;2.10;;;;;;;6.43;34.55;99342.00;5115490;28;20032;-77
2021/04/06 11:01:05;;;;;;;5.28;2.22;;;;;;;6.63;33.04;99348.78;5115126;28;20028;-75
2021/04/06 11:03:49;;;;;;;4.30;2.00;;;;;;;6.26;32.20;99319.13;5096208;28;20020;-74
2021/04/06 11:06:16;;;;;;;;;;;;;;;6.50;32.50;99348.66;5114919;28;20023;-77
2021/04/06 11:08:45;;;;;;;2.53;1.30;;;;;;;6.26;31.67;99334.16;5113590;28;19912;-74
2021/04/06 11:11:19;;;;;;;4.45;1.90;;;;;;;6.34;31.38;99283.41;5114712;28;20053;-75
2021/04/06 11:13:46;;;;;;;6.03;2.17;;;;;;;6.76;31.78;99341.84;5113169;28;20036;-72
2021/04/06 11:16:12;;;;;;;6.03;2.40;;;;;;;6.93;31.97;99339.97;5114559;28;20123;-73
2021/04/06 11:18:38;;;;;;;3.40;2.03;;;;;;;6.64;31.90;99323.16;5112955;28;20127;-72
2021/04/06 11:21:04;;;;;;;3.80;2.00;;;;;;;6.70;32.37;99349.28;5114460;28;20371;-73
2021/04/06 11:23:30;;;;;;;5.07;2.17;;;;;;;6.51;31.61;99326.53;5114167;27;20039;-72
2021/04/06 11:25:55;;;;;;;4.60;2.10;;;;;;;6.14;32.00;99271.31;5096192;28;20036;-70
2021/04/06 11:28:21;;;;;;;4.25;1.80;;;;;;;6.48;31.37;99339.09;5114466;28;20043;-69
2021/04/06 11:30:46;;;;;;;5.63;2.28;;;;;;;6.52;31.81;99314.13;5113891;28;20035;-72
2021/04/06 11:33:12;;;;;;;4.10;2.05;;;;;;;6.78;31.84;99326.69;5112483;28;20127;-71
2021/04/06 11:35:37;;;;;;;5.43;2.13;;;;;;;6.85;31.78;99328.06;5112852;28;20035;-72
2021/04/06 11:38:03;;;;;;;4.15;2.20;;;;;;;6.31;31.34;99260.59;5112628;28;20059;-71
2021/04/06 11:40:29;;;;;;;4.32;2.00;;;;;;;6.84;30.56;99339.56;5112488;28;20031;-72
2021/04/06 11:42:55;;;;;;;3.53;2.10;;;;;;;6.95;31.56;99330.13;5113943;28;20769;-69
2021/04/06 11:45:24;;;;;;;5.93;1.80;;;;;;;6.68;31.07;99312.28;5095248;28;20036;-71
2021/04/06 11:47:51;;;;;;;2.80;2.00;;;;;;;7.11;31.22;99334.41;5114123;28;20111;-71
2021/04/06 11:50:18;;;;;;;5.43;2.17;;;;;;;7.51;32.35;99321.34;5112230;28;20035;-69
2021/04/06 11:52:43;;;;;;;1.55;1.27;;;;;;;6.76;33.34;99325.09;5114296;28;20071;-69
2021/04/06 11:55:09;;;;;;;2.83;1.90;;;;;;;6.67;33.70;99328.28;5113297;28;20440;-76
2021/04/06 11:57:34;;;;;;;4.70;2.08;;;;;;;6.94;32.98;99331.94;5112798;28;20040;-70
2021/04/06 12:00:00;;;;;;;3.65;1.90;;;;;;;6.92;32.20;99328.53;5113554;28;20036;-73